Time;durP1;ratioP1;P1;durP2;ratioP2;P2;SDS_P1;SDS_P2;PMS_P1;PMS_P2;Temp;Humidity;BMP_temperature;BMP_pressure;BME280_temperature;BME280_humidity;BME280_pressure;Samples;Min_cycle;Max_cycle;Signal;HPM_P1;HPM_P2
2020/12/31 00:00:18;;;;;;;14.38;5.13;;;;;;;;;;5025265;28;20073;-59
2020/12/31 00:02:45;;;;;;;12.98;5.00;;;;;;;;;;5005130;28;20037;-60
2020/12/31 00:05:11;;;;;;;9.68;4.03;;;;;;;;;;5022552;28;20152;-60
2020/12/31 00:07:37;;;;;;;11.38;4.63;;;;;;;;;;5024408;28;20044;-60
2020/12/31 00:10:03;;;;;;;15.65;5.47;;;;;;;;;;5044580;28;20040;-60
2020/12/31 00:12:30;;;;;;;9.73;4.25;;;;;;;;;;5027753;28;20033;-60
2020/12/31 00:15:04;;;;;;;11.80;4.72;;;;;;;;;;5005473;28;20038;-61
2020/12/31 00:17:30;;;;;;;11.80;4.90;;;;;;;;;;5026110;28;20586;-60
2020/12/31 00:19:56;;;;;;;10.82;4.40;;;;;;;;;;5019631;28;20041;-60
2020/12/31 00:22:22;;;;;;;9.65;4.05;;;;;;;;;;5024989;28;20041;-60
2020/12/31 00:24:58;;;;;;;12.23;4.45;;;;;;;;;;5034930;28;20049;-60
2020/12/31 00:27:24;;;;;;;7.88;3.90;;;;;;;;;;5008011;28;20037;-60
2020/12/31 00:29:51;;;;;;;10.60;4.00;;;;;;;;;;5034580;28;20037;-60
2020/12/31 00:32:17;;;;;;;9.27;3.65;;;;;;;;;;5043390;28;20033;-61
2020/12/31 00:34:44;;;;;;;9.85;3.58;;;;;;;;;;5022253;28;20057;-60
2020/12/31 00:37:11;;;;;;;7.38;3.20;;;;;;;;;;5027636;28;20045;-61
2020/12/31 00:39:37;;;;;;;8.15;3.42;;;;;;;;;;5023906;28;20053;-60
2020/12/31 00:42:03;;;;;;;9.57;4.03;;;;;;;;;;5037239;28;20097;-60
2020/12/31 00:44:33;;;;;;;7.90;3.53;;;;;;;;;;5004786;28;20090;-60
2020/12/31 00:47:00;;;;;;;10.23;3.65;;;;;;;;;;5025219;28;20053;-59
2020/12/31 00:49:27;;;;;;;9.77;3.78;;;;;;;;;;5041211;28;20037;-59
2020/12/31 00:51:53;;;;;;;7.60;3.38;;;;;;;;;;5027513;28;20037;-59
2020/12/31 00:54:20;;;;;;;10.18;3.63;;;;;;;;;;5022795;28;20052;-60
2020/12/31 00:56:46;;;;;;;11.50;3.47;;;;;;;;;;5025498;28;20033;-61
2020/12/31 00:59:12;;;;;;;7.40;2.97;;;;;;;;;;5043961;28;20061;-60
2020/12/31 01:01:38;;;;;;;9.15;3.17;;;;;;;;;;5011930;28;20048;-60
2020/12/31 01:04:26;;;;;;;7.82;3.15;;;;;;;;;;5039409;28;20037;-60
2020/12/31 01:06:53;;;;;;;6.82;2.95;;;;;;;;;;4960376;28;20047;-60
2020/12/31 01:09:19;;;;;;;7.95;3.20;;;;;;;;;;5002005;28;20074;-61
2020/12/31 01:11:45;;;;;;;5.93;2.83;;;;;;;;;;5017774;28;20349;-60
2020/12/31 01:14:11;;;;;;;6.57;2.78;;;;;;;;;;5023658;28;20045;-60
2020/12/31 01:16:38;;;;;;;8.82;3.58;;;;;;;;;;5009034;28;20048;-60
2020/12/31 01:19:05;;;;;;;6.78;3.13;;;;;;;;;;5004159;28;20051;-60
2020/12/31 01:21:31;;;;;;;6.28;2.85;;;;;;;;;;5011843;28;20042;-61
2020/12/31 01:24:03;;;;;;;8.90;3.13;;;;;;;;;;5025600;28;20053;-60
2020/12/31 01:26:30;;;;;;;5.63;2.88;;;;;;;;;;5012279;28;20133;-61
2020/12/31 01:28:56;;;;;;;5.40;2.85;;;;;;;;;;5004700;28;20046;-61
2020/12/31 01:31:22;;;;;;;6.70;3.20;;;;;;;;;;5003675;28;20030;-60
2020/12/31 01:33:50;;;;;;;8.73;2.90;;;;;;;;;;5004428;28;20022;-60
2020/12/31 01:36:16;;;;;;;8.38;3.08;;;;;;;;;;5017328;28;20034;-60
2020/12/31 01:38:42;;;;;;;6.90;2.83;;;;;;;;;;5021816;28;20149;-61
2020/12/31 01:41:09;;;;;;;5.80;2.75;;;;;;;;;;5019326;28;20061;-60
2020/12/31 01:43:59;;;;;;;8.73;3.50;;;;;;;;;;5022916;28;20046;-60
2020/12/31 01:46:25;;;;;;;5.00;2.15;;;;;;;;;;5036323;28;20046;-60
2020/12/31 01:48:51;;;;;;;6.78;2.88;;;;;;;;;;5024406;28;20173;-60
2020/12/31 01:51:17;;;;;;;5.15;2.55;;;;;;;;;;5024195;28;20118;-59
2020/12/31 01:53:45;;;;;;;5.30;2.50;;;;;;;;;;5002565;28;20044;-61
2020/12/31 01:56:14;;;;;;;7.13;3.13;;;;;;;;;;5005312;28;20035;-60
2020/12/31 01:58:40;;;;;;;;;;;;;;;;;;5004691;28;20034;-60
2020/12/31 02:01:06;;;;;;;5.60;2.35;;;;;;;;;;5005330;28;19941;-60
2020/12/31 02:03:32;;;;;;;6.72;2.85;;;;;;;;;;5010962;28;20220;-61
2020/12/31 02:05:58;;;;;;;6.50;3.03;;;;;;;;;;4991410;28;20034;-61
2020/12/31 02:08:25;;;;;;;7.03;3.40;;;;;;;;;;4996676;28;20073;-60
2020/12/31 02:10:51;;;;;;;7.03;2.67;;;;;;;;;;5010212;28;20046;-60
2020/12/31 02:13:18;;;;;;;5.30;2.28;;;;;;;;;;5016944;28;20045;-60
2020/12/31 02:15:47;;;;;;;6.53;2.97;;;;;;;;;;4989807;28;20038;-60
2020/12/31 02:18:13;;;;;;;5.88;2.78;;;;;;;;;;4990291;28;20044;-59
2020/12/31 02:20:39;;;;;;;6.68;3.00;;;;;;;;;;4989285;28;20042;-60
2020/12/31 02:23:06;;;;;;;4.43;2.30;;;;;;;;;;4989718;28;20120;-60
2020/12/31 02:25:43;;;;;;;8.45;2.40;;;;;;;;;;5006659;28;20091;-59
2020/12/31 02:28:09;;;;;;;5.88;2.75;;;;;;;;;;4988568;28;20464;-60
2020/12/31 02:30:35;;;;;;;8.18;3.08;;;;;;;;;;5008710;28;20046;-60
2020/12/31 02:33:01;;;;;;;6.63;2.67;;;;;;;;;;4981130;28;20049;-60
2020/12/31 02:35:33;;;;;;;7.10;2.55;;;;;;;;;;5019446;28;20082;-59
2020/12/31 02:37:59;;;;;;;7.85;2.78;;;;;;;;;;4990228;28;20023;-61
2020/12/31 02:40:26;;;;;;;6.97;2.65;;;;;;;;;;5023258;28;20040;-60
2020/12/31 02:42:55;;;;;;;8.10;3.28;;;;;;;;;;4995015;28;20580;-60
2020/12/31 02:45:23;;;;;;;8.20;3.00;;;;;;;;;;4999568;28;20036;-60
2020/12/31 02:47:49;;;;;;;8.40;3.03;;;;;;;;;;5026396;28;20062;-60
2020/12/31 02:50:15;;;;;;;6.75;2.92;;;;;;;;;;5022542;28;20037;-60
2020/12/31 02:52:44;;;;;;;6.20;2.65;;;;;;;;;;5026748;28;20044;-60
2020/12/31 02:55:13;;;;;;;;;;;;;;;;;;5012749;28;20050;-60
2020/12/31 02:57:40;;;;;;;7.28;2.88;;;;;;;;;;5007953;28;19914;-60
2020/12/31 03:00:06;;;;;;;5.95;2.55;;;;;;;;;;4993774;28;20053;-60
2020/12/31 03:02:32;;;;;;;7.60;2.90;;;;;;;;;;4999777;28;20081;-60
2020/12/31 03:05:02;;;;;;;7.60;2.72;;;;;;;;;;5002379;28;20094;-60
2020/12/31 03:07:28;;;;;;;6.93;2.85;;;;;;;;;;5005683;28;20034;-60
2020/12/31 03:09:54;;;;;;;6.03;2.75;;;;;;;;;;5002772;28;20049;-60
2020/12/31 03:12:20;;;;;;;4.88;2.55;;;;;;;;;;5012177;28;20099;-60
2020/12/31 03:14:53;;;;;;;6.72;2.60;;;;;;;;;;5037745;28;20066;-60
2020/12/31 03:17:20;;;;;;;5.78;2.47;;;;;;;;;;5022523;28;20038;-60
2020/12/31 03:19:46;;;;;;;6.50;2.58;;;;;;;;;;5006223;28;20026;-59
2020/12/31 03:22:12;;;;;;;6.75;2.50;;;;;;;;;;5037482;28;20088;-59
2020/12/31 03:24:39;;;;;;;6.68;2.40;;;;;;;;;;5042374;28;20057;-59
2020/12/31 03:27:06;;;;;;;5.82;2.58;;;;;;;;;;5034303;28;20059;-60
2020/12/31 03:29:32;;;;;;;6.40;2.70;;;;;;;;;;5005579;28;20038;-60
2020/12/31 03:31:58;;;;;;;6.68;2.58;;;;;;;;;;5004556;28;20045;-60
2020/12/31 03:34:25;;;;;;;5.40;2.33;;;;;;;;;;5004720;28;20053;-59
2020/12/31 03:36:51;;;;;;;5.97;2.97;;;;;;;;;;5025365;28;20038;-59
2020/12/31 03:39:17;;;;;;;5.50;2.50;;;;;;;;;;5003740;28;20056;-60
2020/12/31 03:41:43;;;;;;;8.23;2.90;;;;;;;;;;5006823;28;20026;-61
2020/12/31 03:44:09;;;;;;;6.72;2.70;;;;;;;;;;5026804;28;20045;-59
2020/12/31 03:46:35;;;;;;;6.60;2.33;;;;;;;;;;5020432;28;20049;-60
2020/12/31 03:49:06;;;;;;;6.10;2.55;;;;;;;;;;5025578;28;20081;-61
2020/12/31 03:51:34;;;;;;;7.20;2.70;;;;;;;;;;5023207;28;20054;-60
2020/12/31 03:54:00;;;;;;;7.28;2.63;;;;;;;;;;5041908;28;20041;-61
2020/12/31 03:56:26;;;;;;;6.55;2.78;;;;;;;;;;5035010;28;20402;-60
2020/12/31 03:58:52;;;;;;;6.75;2.67;;;;;;;;;;5021160;28;20054;-60
2020/12/31 04:01:18;;;;;;;6.78;2.90;;;;;;;;;;5022481;28;20038;-60
2020/12/31 04:03:44;;;;;;;8.60;2.30;;;;;;;;;;5002645;28;20030;-59
2020/12/31 04:06:10;;;;;;;7.40;2.53;;;;;;;;;;5004701;28;20043;-60
2020/12/31 04:08:37;;;;;;;6.45;2.83;;;;;;;;;;5002039;28;20078;-61
2020/12/31 04:11:03;;;;;;;5.70;2.58;;;;;;;;;;5005551;28;20108;-59
2020/12/31 04:13:38;;;;;;;5.70;2.60;;;;;;;;;;5019345;28;20042;-60
2020/12/31 04:16:11;;;;;;;5.57;2.75;;;;;;;;;;5004611;28;20059;-60
2020/12/31 04:18:37;;;;;;;5.70;2.72;;;;;;;;;;5013028;28;20045;-60
2020/12/31 04:21:04;;;;;;;12.52;2.78;;;;;;;;;;5025771;28;20066;-60
2020/12/31 04:23:31;;;;;;;5.78;2.80;;;;;;;;;;5012050;28;20042;-60
2020/12/31 04:25:58;;;;;;;4.95;2.47;;;;;;;;;;5004081;28;20058;-60
2020/12/31 04:28:24;;;;;;;6.47;2.60;;;;;;;;;;5008953;28;20030;-60
2020/12/31 04:30:50;;;;;;;5.88;2.35;;;;;;;;;;5025670;28;20111;-60
2020/12/31 04:33:17;;;;;;;6.55;2.42;;;;;;;;;;5021299;28;20050;-61
2020/12/31 04:35:51;;;;;;;5.80;2.50;;;;;;;;;;5024082;28;20038;-61
2020/12/31 04:38:17;;;;;;;5.55;2.75;;;;;;;;;;5020154;28;20063;-60
2020/12/31 04:40:44;;;;;;;5.90;2.40;;;;;;;;;;5004340;28;20050;-60
2020/12/31 04:43:11;;;;;;;4.63;2.40;;;;;;;;;;5018534;28;20050;-60
2020/12/31 04:45:41;;;;;;;10.02;3.10;;;;;;;;;;5005210;28;20045;-60
2020/12/31 04:48:08;;;;;;;6.93;2.83;;;;;;;;;;5021181;28;20049;-60
2020/12/31 04:50:35;;;;;;;8.80;2.53;;;;;;;;;;5020460;28;20082;-60
2020/12/31 04:53:04;;;;;;;7.10;2.60;;;;;;;;;;5024576;28;20034;-60
2020/12/31 04:55:35;;;;;;;3.83;2.03;;;;;;;;;;5005674;28;20045;-60
2020/12/31 04:58:01;;;;;;;4.57;2.08;;;;;;;;;;5004947;28;20042;-60
2020/12/31 05:00:28;;;;;;;6.68;2.63;;;;;;;;;;5015290;28;20042;-60
2020/12/31 05:02:54;;;;;;;9.65;2.90;;;;;;;;;;5009137;28;20120;-61
2020/12/31 05:05:24;;;;;;;7.13;2.50;;;;;;;;;;4994625;28;20114;-60
2020/12/31 05:07:50;;;;;;;5.60;2.30;;;;;;;;;;5024450;28;20065;-61
2020/12/31 05:10:16;;;;;;;6.78;2.70;;;;;;;;;;5012198;28;20061;-61
2020/12/31 05:12:42;;;;;;;6.50;2.45;;;;;;;;;;4987206;28;20119;-60
2020/12/31 05:15:10;;;;;;;4.93;2.25;;;;;;;;;;5007252;28;20066;-60
2020/12/31 05:17:37;;;;;;;5.88;2.65;;;;;;;;;;5024037;28;20069;-60
2020/12/31 05:20:13;;;;;;;5.22;2.33;;;;;;;;;;5017389;28;20078;-60
2020/12/31 05:22:39;;;;;;;7.53;2.42;;;;;;;;;;4988160;28;20039;-60
2020/12/31 05:25:07;;;;;;;6.30;2.55;;;;;;;;;;4988283;28;20034;-60
2020/12/31 05:27:33;;;;;;;5.85;2.28;;;;;;;;;;5024133;28;20045;-61
2020/12/31 05:30:00;;;;;;;5.43;2.10;;;;;;;;;;5023181;28;20125;-60
2020/12/31 05:32:27;;;;;;;5.60;2.50;;;;;;;;;;5031073;28;20058;-60
2020/12/31 05:34:55;;;;;;;5.80;2.40;;;;;;;;;;5012145;28;20044;-61
2020/12/31 05:37:21;;;;;;;6.82;2.85;;;;;;;;;;5009749;28;20069;-60
2020/12/31 05:40:11;;;;;;;5.90;2.40;;;;;;;;;;5030310;28;20082;-59
2020/12/31 05:42:38;;;;;;;7.05;2.50;;;;;;;;;;5028068;28;20029;-60
2020/12/31 05:45:09;;;;;;;5.43;2.28;;;;;;;;;;5013201;28;20045;-60
2020/12/31 05:47:36;;;;;;;7.72;2.15;;;;;;;;;;4992615;28;20026;-60
2020/12/31 05:50:14;;;;;;;4.43;2.28;;;;;;;;;;4992550;28;20044;-60
2020/12/31 05:52:40;;;;;;;6.15;2.47;;;;;;;;;;4990373;28;20093;-60
2020/12/31 05:55:08;;;;;;;8.50;2.50;;;;;;;;;;4993937;28;20049;-60
2020/12/31 05:57:41;;;;;;;4.75;2.28;;;;;;;;;;4990796;28;20038;-59
2020/12/31 06:00:08;;;;;;;4.53;1.98;;;;;;;;;;4993195;28;20041;-60
2020/12/31 06:02:35;;;;;;;6.53;2.50;;;;;;;;;;5020447;28;20033;-61
2020/12/31 06:05:09;;;;;;;6.00;2.53;;;;;;;;;;5045564;28;20038;-60
2020/12/31 06:07:41;;;;;;;3.58;1.90;;;;;;;;;;5027967;28;20048;-60
2020/12/31 06:10:08;;;;;;;3.90;2.00;;;;;;;;;;5030529;28;20042;-60
2020/12/31 06:12:46;;;;;;;4.95;1.90;;;;;;;;;;5018674;28;20038;-60
2020/12/31 06:15:21;;;;;;;5.13;2.22;;;;;;;;;;5010411;28;20038;-61
2020/12/31 06:17:48;;;;;;;4.88;2.17;;;;;;;;;;5006734;28;20116;-60
2020/12/31 06:20:15;;;;;;;4.40;2.13;;;;;;;;;;5010212;28;20034;-61
2020/12/31 06:23:08;;;;;;;4.57;2.15;;;;;;;;;;5007634;28;20564;-61
2020/12/31 06:25:38;;;;;;;3.75;2.03;;;;;;;;;;5023162;28;20033;-60
2020/12/31 06:28:05;;;;;;;4.05;1.95;;;;;;;;;;5026010;28;20033;-60
2020/12/31 06:30:32;;;;;;;5.90;2.08;;;;;;;;;;5029872;28;20093;-60
2020/12/31 06:33:01;;;;;;;4.80;2.20;;;;;;;;;;5022303;28;20049;-59
2020/12/31 06:35:30;;;;;;;5.80;2.28;;;;;;;;;;5009285;28;20034;-60
2020/12/31 06:37:57;;;;;;;4.38;2.00;;;;;;;;;;5008985;28;20064;-59
2020/12/31 06:40:24;;;;;;;5.20;2.15;;;;;;;;;;5043088;28;20049;-60
2020/12/31 06:43:04;;;;;;;6.57;2.30;;;;;;;;;;5027373;28;20042;-60
2020/12/31 06:45:34;;;;;;;4.97;2.10;;;;;;;;;;5020884;28;20086;-61
2020/12/31 06:48:00;;;;;;;5.30;2.08;;;;;;;;;;5020009;28;20058;-60
2020/12/31 06:50:41;;;;;;;7.30;2.58;;;;;;;;;;5025033;28;20041;-60
2020/12/31 06:53:26;;;;;;;6.15;2.28;;;;;;;;;;5023545;28;20041;-60
2020/12/31 06:55:52;;;;;;;4.63;1.83;;;;;;;;;;5006680;28;20058;-60
2020/12/31 06:58:24;;;;;;;8.35;2.53;;;;;;;;;;5006871;28;20030;-60
2020/12/31 07:00:50;;;;;;;4.95;2.10;;;;;;;;;;5023630;28;20042;-61
2020/12/31 07:03:36;;;;;;;5.32;2.25;;;;;;;;;;5007735;28;20046;-60
2020/12/31 07:06:21;;;;;;;5.03;1.73;;;;;;;;;;5007817;28;20049;-60
2020/12/31 07:08:47;;;;;;;3.20;1.70;;;;;;;;;;5006765;28;20037;-60
2020/12/31 07:11:13;;;;;;;4.55;1.95;;;;;;;;;;5007015;28;20089;-60
2020/12/31 07:13:46;;;;;;;4.18;2.00;;;;;;;;;;5027102;28;20030;-60
2020/12/31 07:16:12;;;;;;;3.58;1.63;;;;;;;;;;5004601;28;20053;-60
2020/12/31 07:18:40;;;;;;;3.45;1.65;;;;;;;;;;4990670;28;20049;-60
2020/12/31 07:21:06;;;;;;;4.40;1.50;;;;;;;;;;5019835;28;20046;-60
2020/12/31 07:23:37;;;;;;;2.83;1.60;;;;;;;;;;5025303;28;20044;-60
2020/12/31 07:26:03;;;;;;;3.65;1.70;;;;;;;;;;5022211;28;20040;-60
2020/12/31 07:28:29;;;;;;;5.03;1.75;;;;;;;;;;5024188;28;20078;-60
2020/12/31 07:30:57;;;;;;;3.08;1.40;;;;;;;;;;5011436;28;20049;-60
2020/12/31 07:33:36;;;;;;;4.03;1.50;;;;;;;;;;5006056;28;20054;-59
2020/12/31 07:36:02;;;;;;;;;;;;;;;;;;5008977;28;20049;-60
2020/12/31 07:38:28;;;;;;;3.40;1.30;;;;;;;;;;4985885;28;19936;-60
2020/12/31 07:40:54;;;;;;;2.85;1.30;;;;;;;;;;4983825;28;20030;-61
2020/12/31 07:43:22;;;;;;;3.55;1.42;;;;;;;;;;5025853;28;20026;-60
2020/12/31 07:45:48;;;;;;;2.53;1.13;;;;;;;;;;5000134;28;20038;-60
2020/12/31 07:48:16;;;;;;;3.40;1.00;;;;;;;;;;5007034;28;20050;-60
2020/12/31 07:50:43;;;;;;;2.20;1.20;;;;;;;;;;4986998;28;20066;-60
2020/12/31 07:53:09;;;;;;;3.58;1.10;;;;;;;;;;4987389;28;20052;-60
2020/12/31 07:55:38;;;;;;;2.80;1.10;;;;;;;;;;4989217;28;20042;-60
2020/12/31 07:58:07;;;;;;;3.17;1.40;;;;;;;;;;5005619;28;20037;-60
2020/12/31 08:00:33;;;;;;;2.35;1.10;;;;;;;;;;5003779;28;20058;-61
2020/12/31 08:02:59;;;;;;;4.65;1.08;;;;;;;;;;4999729;28;20057;-60
2020/12/31 08:05:27;;;;;;;4.10;1.50;;;;;;;;;;5038951;28;20049;-61
2020/12/31 08:07:54;;;;;;;2.83;1.50;;;;;;;;;;5038172;28;20037;-60
2020/12/31 08:10:20;;;;;;;4.07;1.42;;;;;;;;;;5027067;28;20029;-60
2020/12/31 08:12:53;;;;;;;3.28;1.45;;;;;;;;;;5029546;28;20037;-60
2020/12/31 08:15:32;;;;;;;3.95;1.30;;;;;;;;;;5023982;28;20062;-60
2020/12/31 08:18:02;;;;;;;2.55;1.30;;;;;;;;;;5034434;28;20061;-61
2020/12/31 08:20:31;;;;;;;2.60;1.33;;;;;;;;;;5040551;28;20044;-60
2020/12/31 08:22:58;;;;;;;4.38;1.20;;;;;;;;;;5021424;28;20056;-61
2020/12/31 08:25:28;;;;;;;3.15;1.10;;;;;;;;;;5032075;28;20037;-61
2020/12/31 08:27:55;;;;;;;4.38;1.50;;;;;;;;;;5002718;28;20049;-61
2020/12/31 08:30:21;;;;;;;3.20;1.50;;;;;;;;;;5025578;28;20048;-60
2020/12/31 08:32:51;;;;;;;1.73;1.00;;;;;;;;;;5023091;28;20042;-60
2020/12/31 08:35:30;;;;;;;2.42;0.95;;;;;;;;;;5025542;28;20049;-60
2020/12/31 08:38:04;;;;;;;4.60;1.50;;;;;;;;;;5026395;28;20049;-60
2020/12/31 08:40:31;;;;;;;3.05;1.30;;;;;;;;;;5046238;28;20049;-61
2020/12/31 08:42:57;;;;;;;3.15;1.30;;;;;;;;;;5010204;28;20042;-61
2020/12/31 08:45:46;;;;;;;3.20;1.27;;;;;;;;;;5025601;28;20100;-61
2020/12/31 08:48:12;;;;;;;3.10;0.98;;;;;;;;;;5025874;28;20037;-60
2020/12/31 08:50:40;;;;;;;1.80;0.90;;;;;;;;;;5027728;28;20025;-60
2020/12/31 08:53:06;;;;;;;3.03;0.95;;;;;;;;;;5021260;28;20057;-60
2020/12/31 08:55:43;;;;;;;3.72;1.25;;;;;;;;;;5007381;28;20034;-61
2020/12/31 08:58:10;;;;;;;2.92;1.20;;;;;;;;;;5021831;28;20037;-59
2020/12/31 09:00:38;;;;;;;4.40;1.02;;;;;;;;;;5024153;28;20041;-60
2020/12/31 09:03:04;;;;;;;3.22;1.27;;;;;;;;;;5025075;28;20033;-59
2020/12/31 09:05:38;;;;;;;4.50;1.40;;;;;;;;;;5002850;28;20056;-61
2020/12/31 09:08:06;;;;;;;2.60;1.33;;;;;;;;;;5025036;28;20042;-60
2020/12/31 09:10:33;;;;;;;5.75;1.38;;;;;;;;;;5004614;28;20153;-60
2020/12/31 09:12:59;;;;;;;5.15;1.23;;;;;;;;;;5024389;28;20069;-60
2020/12/31 09:15:40;;;;;;;2.22;1.20;;;;;;;;;;5022689;28;20061;-61
2020/12/31 09:18:16;;;;;;;2.75;1.17;;;;;;;;;;5004956;28;20078;-60
2020/12/31 09:20:42;;;;;;;3.70;1.15;;;;;;;;;;5030593;28;20065;-61
2020/12/31 09:23:09;;;;;;;1.98;1.10;;;;;;;;;;5007911;28;20057;-60
2020/12/31 09:25:49;;;;;;;4.03;1.10;;;;;;;;;;5005804;28;20044;-59
2020/12/31 09:28:17;;;;;;;1.85;1.10;;;;;;;;;;5024109;28;20041;-60
2020/12/31 09:30:43;;;;;;;1.75;1.02;;;;;;;;;;5021581;28;20044;-60
2020/12/31 09:33:09;;;;;;;3.40;1.17;;;;;;;;;;5004895;28;20053;-60
2020/12/31 09:35:35;;;;;;;2.83;1.15;;;;;;;;;;5027992;28;20046;-60
2020/12/31 09:38:02;;;;;;;4.03;1.30;;;;;;;;;;5041792;28;20037;-60
2020/12/31 09:40:29;;;;;;;2.03;0.98;;;;;;;;;;5039800;28;20126;-60
2020/12/31 09:42:55;;;;;;;2.20;1.10;;;;;;;;;;5040830;28;20037;-61
2020/12/31 09:45:23;;;;;;;2.95;1.23;;;;;;;;;;5004195;28;20030;-60
2020/12/31 09:47:49;;;;;;;1.33;0.80;;;;;;;;;;5011861;28;20046;-60
2020/12/31 09:50:15;;;;;;;4.97;1.05;;;;;;;;;;5004201;28;20050;-59
2020/12/31 09:52:42;;;;;;;2.78;1.25;;;;;;;;;;5027746;28;20085;-60
2020/12/31 09:55:09;;;;;;;5.30;1.35;;;;;;;;;;5028475;28;20036;-59
2020/12/31 09:57:35;;;;;;;4.43;1.38;;;;;;;;;;5022351;28;20052;-59
2020/12/31 10:00:02;;;;;;;2.85;1.40;;;;;;;;;;5043460;28;20046;-60
2020/12/31 10:02:28;;;;;;;2.90;1.40;;;;;;;;;;5029153;28;20108;-61
2020/12/31 10:04:59;;;;;;;2.22;1.10;;;;;;;;;;5003341;28;20034;-61
2020/12/31 10:07:25;;;;;;;2.17;1.20;;;;;;;;;;5032110;28;20034;-61
2020/12/31 10:09:51;;;;;;;3.47;1.40;;;;;;;;;;5025141;28;20131;-61
2020/12/31 10:12:17;;;;;;;2.10;1.05;;;;;;;;;;5009648;28;20046;-60
2020/12/31 10:14:46;;;;;;;2.33;1.20;;;;;;;;;;5004455;28;20038;-60
2020/12/31 10:17:12;;;;;;;2.90;1.30;;;;;;;;;;5012425;28;20052;-61
2020/12/31 10:19:38;;;;;;;2.05;1.13;;;;;;;;;;5027303;28;20034;-60
2020/12/31 10:22:04;;;;;;;3.38;1.50;;;;;;;;;;5017316;28;20049;-59
2020/12/31 10:24:31;;;;;;;2.72;1.30;;;;;;;;;;5014729;28;20065;-60
2020/12/31 10:26:57;;;;;;;2.83;1.23;;;;;;;;;;5022767;28;20038;-60
2020/12/31 10:29:23;;;;;;;2.45;1.27;;;;;;;;;;5028004;28;20143;-60
2020/12/31 10:31:51;;;;;;;2.80;1.25;;;;;;;;;;5015433;28;20038;-60
2020/12/31 10:34:18;;;;;;;5.53;1.40;;;;;;;;;;5027418;28;20038;-60
2020/12/31 10:36:49;;;;;;;2.78;1.40;;;;;;;;;;5026998;28;20062;-60
2020/12/31 10:39:15;;;;;;;4.15;1.60;;;;;;;;;;5022458;28;20049;-60
2020/12/31 10:41:41;;;;;;;6.20;1.80;;;;;;;;;;5021572;28;20042;-60
2020/12/31 10:44:07;;;;;;;4.10;2.00;;;;;;;;;;5004964;28;20057;-60
2020/12/31 10:46:33;;;;;;;3.30;1.55;;;;;;;;;;5006498;28;20040;-60
2020/12/31 10:49:00;;;;;;;4.28;1.88;;;;;;;;;;5017613;28;20033;-60
2020/12/31 10:51:26;;;;;;;3.95;1.70;;;;;;;;;;5026937;28;20144;-60
2020/12/31 10:54:12;;;;;;;4.18;1.80;;;;;;;;;;5021570;28;20095;-60
2020/12/31 10:56:38;;;;;;;3.90;1.67;;;;;;;;;;4963565;28;20075;-60
2020/12/31 10:59:04;;;;;;;4.55;1.80;;;;;;;;;;5014270;28;20049;-60
2020/12/31 11:01:30;;;;;;;3.00;1.67;;;;;;;;;;5007815;28;20042;-60
2020/12/31 11:03:56;;;;;;;4.50;1.75;;;;;;;;;;5012493;28;20115;-61
2020/12/31 11:06:25;;;;;;;6.30;1.95;;;;;;;;;;5023589;28;20149;-60
2020/12/31 11:08:51;;;;;;;5.03;2.13;;;;;;;;;;4987737;28;20045;-60
2020/12/31 11:11:17;;;;;;;5.50;2.25;;;;;;;;;;4987837;28;20042;-60
2020/12/31 11:13:52;;;;;;;5.70;2.15;;;;;;;;;;5008443;28;20050;-60
2020/12/31 11:16:18;;;;;;;3.88;2.00;;;;;;;;;;5023532;28;20033;-60
2020/12/31 11:18:45;;;;;;;6.13;2.33;;;;;;;;;;5003309;28;20168;-61
2020/12/31 11:21:13;;;;;;;9.95;2.58;;;;;;;;;;4988339;28;20092;-61
2020/12/31 11:23:40;;;;;;;4.75;1.90;;;;;;;;;;4991099;28;20115;-60
2020/12/31 11:26:09;;;;;;;4.97;1.75;;;;;;;;;;5004961;28;20033;-60
2020/12/31 11:28:35;;;;;;;4.97;2.15;;;;;;;;;;5007219;28;20049;-61
2020/12/31 11:31:01;;;;;;;5.22;2.20;;;;;;;;;;4987696;28;20104;-60
2020/12/31 11:33:29;;;;;;;4.65;2.10;;;;;;;;;;4986426;28;20054;-61
2020/12/31 11:35:55;;;;;;;4.53;1.83;;;;;;;;;;4999030;28;20029;-61
2020/12/31 11:38:21;;;;;;;4.60;2.20;;;;;;;;;;5006591;28;20074;-61
2020/12/31 11:40:48;;;;;;;5.07;2.28;;;;;;;;;;5008390;28;20030;-61
2020/12/31 11:43:14;;;;;;;4.68;2.22;;;;;;;;;;4988208;28;20045;-61
2020/12/31 11:45:42;;;;;;;4.60;1.83;;;;;;;;;;4995079;28;20045;-61
2020/12/31 11:48:08;;;;;;;9.25;2.75;;;;;;;;;;5007439;28;20113;-61
2020/12/31 11:50:34;;;;;;;5.63;2.80;;;;;;;;;;4997769;28;20045;-60
2020/12/31 11:53:00;;;;;;;8.23;3.47;;;;;;;;;;4988009;28;20038;-60
2020/12/31 11:55:27;;;;;;;9.60;3.72;;;;;;;;;;4985354;28;20022;-61
2020/12/31 11:57:54;;;;;;;5.60;2.67;;;;;;;;;;4988573;28;20169;-61
2020/12/31 12:00:20;;;;;;;9.20;3.15;;;;;;;;;;4984790;28;20169;-61
2020/12/31 12:02:46;;;;;;;5.57;2.75;;;;;;;;;;5003304;28;20037;-61
2020/12/31 12:05:13;;;;;;;5.90;3.15;;;;;;;;;;5023659;28;20128;-61
2020/12/31 12:07:39;;;;;;;7.60;3.15;;;;;;;;;;5004364;28;20038;-61
2020/12/31 12:10:06;;;;;;;7.32;3.38;;;;;;;;;;5005705;28;20049;-60
2020/12/31 12:12:32;;;;;;;6.50;2.78;;;;;;;;;;5001304;28;20108;-61
2020/12/31 12:15:00;;;;;;;5.55;3.00;;;;;;;;;;5006305;28;20022;-61
2020/12/31 12:17:26;;;;;;;6.82;3.05;;;;;;;;;;5014272;28;20058;-61
2020/12/31 12:19:52;;;;;;;6.28;2.80;;;;;;;;;;5025296;28;20122;-61
2020/12/31 12:22:18;;;;;;;6.63;2.63;;;;;;;;;;5010866;28;20058;-61
2020/12/31 12:24:46;;;;;;;6.97;2.90;;;;;;;;;;5006405;28;20056;-61
2020/12/31 12:27:12;;;;;;;7.55;2.58;;;;;;;;;;5003693;28;20064;-61
2020/12/31 12:29:39;;;;;;;7.25;2.72;;;;;;;;;;5003235;28;20077;-61
2020/12/31 12:32:09;;;;;;;6.00;2.63;;;;;;;;;;5008057;28;20044;-61
2020/12/31 12:34:46;;;;;;;7.47;2.95;;;;;;;;;;5026030;28;20044;-60
2020/12/31 12:37:12;;;;;;;6.10;2.70;;;;;;;;;;5033339;28;20038;-61
2020/12/31 12:39:38;;;;;;;8.65;3.65;;;;;;;;;;5006111;28;20062;-61
2020/12/31 12:42:04;;;;;;;10.57;4.28;;;;;;;;;;5007466;28;20054;-61
2020/12/31 12:44:37;;;;;;;11.00;4.43;;;;;;;;;;5025204;28;20029;-60
2020/12/31 12:47:03;;;;;;;20.85;7.80;;;;;;;;;;5019508;28;20111;-60
2020/12/31 12:49:30;;;;;;;23.23;7.97;;;;;;;;;;5025590;28;20041;-61
2020/12/31 12:51:56;;;;;;;16.13;6.22;;;;;;;;;;5023534;28;20069;-61
2020/12/31 12:54:32;;;;;;;13.68;4.95;;;;;;;;;;5004420;28;20039;-61
2020/12/31 12:56:58;;;;;;;14.63;5.72;;;;;;;;;;5019802;28;20062;-61
2020/12/31 12:59:24;;;;;;;13.05;5.10;;;;;;;;;;5017290;28;20046;-61
2020/12/31 13:01:50;;;;;;;11.13;4.57;;;;;;;;;;5012131;28;20042;-61
2020/12/31 13:04:16;;;;;;;10.77;4.00;;;;;;;;;;5022124;28;20052;-61
2020/12/31 13:06:46;;;;;;;10.43;4.20;;;;;;;;;;5042790;28;20056;-60
2020/12/31 13:09:12;;;;;;;9.00;4.18;;;;;;;;;;5030078;28;20111;-61
2020/12/31 13:11:38;;;;;;;9.38;3.63;;;;;;;;;;5007397;28;20030;-60
2020/12/31 13:14:17;;;;;;;12.30;4.97;;;;;;;;;;5006075;28;20057;-59
2020/12/31 13:16:43;;;;;;;10.18;4.18;;;;;;;;;;5033386;28;20049;-60
2020/12/31 13:19:09;;;;;;;13.38;5.88;;;;;;;;;;5024510;28;20037;-60
2020/12/31 13:21:35;;;;;;;14.27;5.47;;;;;;;;;;5044384;28;20047;-59
2020/12/31 13:24:05;;;;;;;15.60;5.45;;;;;;;;;;5040254;28;20045;-60
2020/12/31 13:26:31;;;;;;;14.20;5.50;;;;;;;;;;5045298;28;20087;-61
2020/12/31 13:28:57;;;;;;;16.00;6.20;;;;;;;;;;5037979;28;20033;-60
2020/12/31 13:31:24;;;;;;;15.45;4.97;;;;;;;;;;5027978;28;20029;-60
2020/12/31 13:33:52;;;;;;;15.05;6.20;;;;;;;;;;5022287;28;20037;-60
2020/12/31 13:36:19;;;;;;;12.23;5.00;;;;;;;;;;5023581;28;20112;-60
2020/12/31 13:38:45;;;;;;;13.40;5.38;;;;;;;;;;5008561;28;20045;-61
2020/12/31 13:41:14;;;;;;;14.32;5.13;;;;;;;;;;5038310;28;20143;-60
2020/12/31 13:43:41;;;;;;;;;;;;;;;;;;5046390;28;20029;-60
2020/12/31 13:46:07;;;;;;;13.88;5.38;;;;;;;;;;5006974;28;19918;-60
2020/12/31 13:48:33;;;;;;;17.98;7.28;;;;;;;;;;5042322;28;20052;-60
2020/12/31 13:50:59;;;;;;;14.35;6.38;;;;;;;;;;5012342;28;20074;-59
2020/12/31 13:53:24;;;;;;;15.68;6.07;;;;;;;;;;5025345;28;20048;-61
2020/12/31 13:55:51;;;;;;;14.32;6.65;;;;;;;;;;5019506;28;20069;-59
2020/12/31 13:58:18;;;;;;;15.25;6.30;;;;;;;;;;5024779;28;20045;-60
2020/12/31 14:00:44;;;;;;;18.08;6.18;;;;;;;;;;5019023;28;20044;-60
2020/12/31 14:03:10;;;;;;;15.85;6.28;;;;;;;;;;5024760;28;20163;-60
2020/12/31 14:06:05;;;;;;;16.08;6.72;;;;;;;;;;5021088;28;20045;-60
2020/12/31 14:08:32;;;;;;;18.40;7.43;;;;;;;;;;5025494;28;20130;-60
2020/12/31 14:10:58;;;;;;;21.30;8.13;;;;;;;;;;5019832;28;20041;-61
2020/12/31 14:13:25;;;;;;;23.23;7.97;;;;;;;;;;5040803;28;20046;-61
2020/12/31 14:15:51;;;;;;;21.27;9.10;;;;;;;;;;5022621;28;20096;-60
2020/12/31 14:18:18;;;;;;;31.42;11.50;;;;;;;;;;5028049;28;20095;-60
2020/12/31 14:20:44;;;;;;;28.58;11.57;;;;;;;;;;5019385;28;20061;-59
2020/12/31 14:23:10;;;;;;;26.65;10.15;;;;;;;;;;5022382;28;20038;-61
2020/12/31 14:25:41;;;;;;;28.73;11.23;;;;;;;;;;5042067;28;20057;-59
2020/12/31 14:28:07;;;;;;;29.20;11.57;;;;;;;;;;5022046;28;20045;-60
2020/12/31 14:30:34;;;;;;;27.05;12.35;;;;;;;;;;5024949;28;20034;-61
2020/12/31 14:33:00;;;;;;;30.75;12.57;;;;;;;;;;5018949;28;20109;-61
2020/12/31 14:35:29;;;;;;;28.15;12.52;;;;;;;;;;5024680;28;20041;-61
2020/12/31 14:37:57;;;;;;;27.98;11.32;;;;;;;;;;5016089;28;20065;-61
2020/12/31 14:40:23;;;;;;;31.90;12.18;;;;;;;;;;5041642;28;20084;-60
2020/12/31 14:42:49;;;;;;;28.92;12.30;;;;;;;;;;5023650;28;20065;-61
2020/12/31 14:45:16;;;;;;;30.05;12.13;;;;;;;;;;5026551;28;20090;-62